sensor_id;sensor_type;location;lat;lon;timestamp;pressure;altitude;pressure_sealevel;temperature;humidity
48810;BME280;40070;47.322;18.784;2022-12-20T00:00:36;1021.30;;;0.42;72.36
48810;BME280;40070;47.322;18.784;2022-12-20T00:02:38;1021.22;;;0.59;71.92
48810;BME280;40070;47.322;18.784;2022-12-20T00:04:41;1021.25;;;0.58;71.48
48810;BME280;40070;47.322;18.784;2022-12-20T00:06:43;1021.31;;;0.61;71.65
48810;BME280;40070;47.322;18.784;2022-12-20T00:08:46;1021.36;;;0.51;71.40
48810;BME280;40070;47.322;18.784;2022-12-20T00:10:48;1021.37;;;0.60;71.49
48810;BME280;40070;47.322;18.784;2022-12-20T00:12:51;1021.36;;;0.69;71.40
48810;BME280;40070;47.322;18.784;2022-12-20T00:14:53;1021.35;;;0.53;72.01
48810;BME280;40070;47.322;18.784;2022-12-20T00:16:55;1021.36;;;0.70;71.28
48810;BME280;40070;47.322;18.784;2022-12-20T00:18:59;1021.34;;;0.78;71.21
48810;BME280;40070;47.322;18.784;2022-12-20T00:21:02;1021.40;;;0.73;70.85
48810;BME280;40070;47.322;18.784;2022-12-20T00:23:05;1021.42;;;0.69;70.70
48810;BME280;40070;47.322;18.784;2022-12-20T00:25:08;1021.45;;;0.79;70.96
48810;BME280;40070;47.322;18.784;2022-12-20T00:27:10;1021.44;;;0.81;70.85
48810;BME280;40070;47.322;18.784;2022-12-20T00:29:12;1021.36;;;0.66;70.86
48810;BME280;40070;47.322;18.784;2022-12-20T00:31:18;1021.21;;;0.78;70.96
48810;BME280;40070;47.322;18.784;2022-12-20T00:33:20;1021.15;;;0.24;72.39
48810;BME280;40070;47.322;18.784;2022-12-20T00:35:23;1021.15;;;0.24;72.98
48810;BME280;40070;47.322;18.784;2022-12-20T00:37:25;1021.28;;;-0.16;73.85
48810;BME280;40070;47.322;18.784;2022-12-20T00:39:27;1021.22;;;0.01;73.70
48810;BME280;40070;47.322;18.784;2022-12-20T00:41:31;1021.23;;;0.28;73.26
48810;BME280;40070;47.322;18.784;2022-12-20T00:43:33;1021.27;;;0.30;73.25
48810;BME280;40070;47.322;18.784;2022-12-20T00:45:36;1021.25;;;0.20;73.09
48810;BME280;40070;47.322;18.784;2022-12-20T00:47:38;1021.23;;;0.22;73.02
48810;BME280;40070;47.322;18.784;2022-12-20T00:49:41;1021.19;;;0.31;72.81
48810;BME280;40070;47.322;18.784;2022-12-20T00:51:43;1021.05;;;0.13;73.15
48810;BME280;40070;47.322;18.784;2022-12-20T00:53:45;1021.00;;;-0.04;73.46
48810;BME280;40070;47.322;18.784;2022-12-20T00:55:48;1020.93;;;0.19;73.22
48810;BME280;40070;47.322;18.784;2022-12-20T00:57:50;1020.88;;;0.07;73.42
48810;BME280;40070;47.322;18.784;2022-12-20T00:59:52;1020.80;;;0.06;73.89
48810;BME280;40070;47.322;18.784;2022-12-20T01:01:55;1020.83;;;-0.04;73.75
48810;BME280;40070;47.322;18.784;2022-12-20T01:03:57;1020.81;;;0.09;73.89
48810;BME280;40070;47.322;18.784;2022-12-20T01:06:00;1020.83;;;0.02;73.61
48810;BME280;40070;47.322;18.784;2022-12-20T01:08:03;1020.85;;;0.16;73.44
48810;BME280;40070;47.322;18.784;2022-12-20T01:10:06;1020.90;;;-0.01;73.83
48810;BME280;40070;47.322;18.784;2022-12-20T01:12:08;1020.97;;;0.01;74.09
48810;BME280;40070;47.322;18.784;2022-12-20T01:14:12;1020.91;;;0.11;73.68
48810;BME280;40070;47.322;18.784;2022-12-20T01:16:16;1020.87;;;0.14;73.54
48810;BME280;40070;47.322;18.784;2022-12-20T01:18:18;1020.89;;;-0.15;74.33
48810;BME280;40070;47.322;18.784;2022-12-20T01:20:21;1020.94;;;-0.03;74.22
48810;BME280;40070;47.322;18.784;2022-12-20T01:22:23;1020.93;;;0.05;74.21
48810;BME280;40070;47.322;18.784;2022-12-20T01:24:25;1020.87;;;0.19;73.58
48810;BME280;40070;47.322;18.784;2022-12-20T01:26:28;1020.89;;;0.13;73.54
48810;BME280;40070;47.322;18.784;2022-12-20T01:28:31;1020.88;;;-0.21;74.13
48810;BME280;40070;47.322;18.784;2022-12-20T01:30:33;1020.87;;;-0.22;74.70
48810;BME280;40070;47.322;18.784;2022-12-20T01:32:36;1020.77;;;-0.21;74.70
48810;BME280;40070;47.322;18.784;2022-12-20T01:34:38;1020.74;;;-0.16;74.87
48810;BME280;40070;47.322;18.784;2022-12-20T01:36:40;1020.65;;;-0.19;74.92
48810;BME280;40070;47.322;18.784;2022-12-20T01:38:43;1020.53;;;-0.11;74.83
48810;BME280;40070;47.322;18.784;2022-12-20T01:40:45;1020.37;;;-0.19;74.72
48810;BME280;40070;47.322;18.784;2022-12-20T01:42:47;1020.28;;;-0.34;75.35
48810;BME280;40070;47.322;18.784;2022-12-20T01:44:52;1020.23;;;-0.07;75.10
48810;BME280;40070;47.322;18.784;2022-12-20T01:46:55;1020.21;;;-0.05;74.65
48810;BME280;40070;47.322;18.784;2022-12-20T01:51:15;1020.30;;;0.15;74.24
48810;BME280;40070;47.322;18.784;2022-12-20T01:53:18;1020.31;;;0.08;74.00
48810;BME280;40070;47.322;18.784;2022-12-20T01:55:22;1020.27;;;0.05;74.05
48810;BME280;40070;47.322;18.784;2022-12-20T01:57:31;1020.19;;;0.07;74.12
48810;BME280;40070;47.322;18.784;2022-12-20T01:59:36;1020.28;;;0.22;73.92
48810;BME280;40070;47.322;18.784;2022-12-20T02:01:41;1020.20;;;0.03;74.21
48810;BME280;40070;47.322;18.784;2022-12-20T02:03:44;1020.17;;;0.23;73.80
48810;BME280;40070;47.322;18.784;2022-12-20T02:05:47;1020.14;;;0.20;73.68
48810;BME280;40070;47.322;18.784;2022-12-20T02:07:50;1020.11;;;0.19;73.67
48810;BME280;40070;47.322;18.784;2022-12-20T02:09:53;1020.13;;;0.47;73.11
48810;BME280;40070;47.322;18.784;2022-12-20T02:12:08;1020.06;;;0.40;72.86
48810;BME280;40070;47.322;18.784;2022-12-20T02:16:43;1019.90;;;0.05;73.53
48810;BME280;40070;47.322;18.784;2022-12-20T02:18:57;1019.91;;;0.17;73.56
48810;BME280;40070;47.322;18.784;2022-12-20T02:21:04;1019.96;;;0.16;73.17
48810;BME280;40070;47.322;18.784;2022-12-20T02:23:21;1019.94;;;0.22;73.58
48810;BME280;40070;47.322;18.784;2022-12-20T02:30:20;1019.91;;;0.04;73.94
48810;BME280;40070;47.322;18.784;2022-12-20T02:32:24;1019.96;;;0.09;73.67
48810;BME280;40070;47.322;18.784;2022-12-20T02:34:28;1019.93;;;0.11;73.37
48810;BME280;40070;47.322;18.784;2022-12-20T02:36:31;1019.84;;;0.23;73.29
48810;BME280;40070;47.322;18.784;2022-12-20T02:38:34;1019.79;;;0.12;73.50
48810;BME280;40070;47.322;18.784;2022-12-20T02:40:38;1019.76;;;0.34;73.13
48810;BME280;40070;47.322;18.784;2022-12-20T02:42:41;1019.73;;;0.35;72.94
48810;BME280;40070;47.322;18.784;2022-12-20T02:44:58;1019.72;;;0.32;72.86
48810;BME280;40070;47.322;18.784;2022-12-20T02:47:03;1019.75;;;0.26;72.84
48810;BME280;40070;47.322;18.784;2022-12-20T02:49:11;1019.75;;;0.23;72.99
48810;BME280;40070;47.322;18.784;2022-12-20T02:51:14;1019.83;;;0.49;72.28
48810;BME280;40070;47.322;18.784;2022-12-20T02:53:18;1019.70;;;0.28;72.65
48810;BME280;40070;47.322;18.784;2022-12-20T02:55:24;1019.73;;;0.26;72.62
48810;BME280;40070;47.322;18.784;2022-12-20T02:57:37;1019.77;;;0.20;72.96
48810;BME280;40070;47.322;18.784;2022-12-20T02:59:48;1019.77;;;0.04;73.58
48810;BME280;40070;47.322;18.784;2022-12-20T03:01:53;1019.71;;;0.21;73.34
48810;BME280;40070;47.322;18.784;2022-12-20T03:03:55;1019.66;;;-0.01;73.60
48810;BME280;40070;47.322;18.784;2022-12-20T03:05:58;1019.64;;;0.08;73.68
48810;BME280;40070;47.322;18.784;2022-12-20T03:08:01;1019.69;;;-0.04;73.52
48810;BME280;40070;47.322;18.784;2022-12-20T03:10:03;1019.71;;;0.18;73.32
48810;BME280;40070;47.322;18.784;2022-12-20T03:12:06;1019.63;;;-0.02;73.66
48810;BME280;40070;47.322;18.784;2022-12-20T03:14:09;1019.64;;;0.17;73.67
48810;BME280;40070;47.322;18.784;2022-12-20T03:16:11;1019.58;;;0.17;73.44
48810;BME280;40070;47.322;18.784;2022-12-20T03:18:14;1019.60;;;0.24;73.12
48810;BME280;40070;47.322;18.784;2022-12-20T03:20:16;1019.60;;;0.32;72.52
48810;BME280;40070;47.322;18.784;2022-12-20T03:22:18;1019.60;;;0.31;72.66
48810;BME280;40070;47.322;18.784;2022-12-20T03:24:21;1019.63;;;0.10;72.79
48810;BME280;40070;47.322;18.784;2022-12-20T03:26:23;1019.54;;;0.35;72.21
48810;BME280;40070;47.322;18.784;2022-12-20T03:28:25;1019.55;;;0.34;72.17
48810;BME280;40070;47.322;18.784;2022-12-20T03:30:28;1019.57;;;0.27;71.99
48810;BME280;40070;47.322;18.784;2022-12-20T03:32:30;1019.53;;;0.41;71.86
48810;BME280;40070;47.322;18.784;2022-12-20T03:34:33;1019.54;;;0.54;71.22
48810;BME280;40070;47.322;18.784;2022-12-20T03:36:35;1019.58;;;0.53;70.96
48810;BME280;40070;47.322;18.784;2022-12-20T03:38:37;1019.61;;;0.28;72.01
48810;BME280;40070;47.322;18.784;2022-12-20T03:40:40;1019.63;;;0.17;72.29
48810;BME280;40070;47.322;18.784;2022-12-20T03:42:42;1019.57;;;0.35;71.70
48810;BME280;40070;47.322;18.784;2022-12-20T03:44:44;1019.53;;;0.33;71.76
48810;BME280;40070;47.322;18.784;2022-12-20T03:46:47;1019.59;;;0.05;72.09
48810;BME280;40070;47.322;18.784;2022-12-20T03:48:49;1019.63;;;0.35;71.84
48810;BME280;40070;47.322;18.784;2022-12-20T03:50:51;1019.60;;;0.77;70.45
48810;BME280;40070;47.322;18.784;2022-12-20T03:52:54;1019.59;;;0.79;69.99
48810;BME280;40070;47.322;18.784;2022-12-20T03:54:56;1019.62;;;0.61;70.08
48810;BME280;40070;47.322;18.784;2022-12-20T03:56:58;1019.62;;;0.54;70.59
48810;BME280;40070;47.322;18.784;2022-12-20T03:59:01;1019.54;;;0.45;70.30
48810;BME280;40070;47.322;18.784;2022-12-20T04:01:15;1019.54;;;0.37;70.85
48810;BME280;40070;47.322;18.784;2022-12-20T04:03:17;1019.45;;;0.09;71.51
48810;BME280;40070;47.322;18.784;2022-12-20T04:05:20;1019.38;;;-0.04;71.98
48810;BME280;40070;47.322;18.784;2022-12-20T04:07:22;1019.31;;;-0.18;72.54
48810;BME280;40070;47.322;18.784;2022-12-20T04:09:24;1019.30;;;0.23;71.84
48810;BME280;40070;47.322;18.784;2022-12-20T04:11:27;1019.35;;;0.33;71.07
48810;BME280;40070;47.322;18.784;2022-12-20T04:13:29;1019.39;;;0.38;70.90
48810;BME280;40070;47.322;18.784;2022-12-20T04:15:31;1019.33;;;0.31;71.10
48810;BME280;40070;47.322;18.784;2022-12-20T04:17:34;1019.31;;;0.11;71.74
48810;BME280;40070;47.322;18.784;2022-12-20T04:19:36;1019.29;;;0.06;71.34
48810;BME280;40070;47.322;18.784;2022-12-20T04:21:38;1019.24;;;0.39;71.08
48810;BME280;40070;47.322;18.784;2022-12-20T04:23:41;1019.28;;;0.11;71.64
48810;BME280;40070;47.322;18.784;2022-12-20T04:25:44;1019.20;;;-0.04;71.89
48810;BME280;40070;47.322;18.784;2022-12-20T04:27:46;1019.13;;;-0.23;72.94
48810;BME280;40070;47.322;18.784;2022-12-20T04:29:48;1019.01;;;-0.28;72.99
48810;BME280;40070;47.322;18.784;2022-12-20T04:31:51;1018.93;;;-0.04;72.46
48810;BME280;40070;47.322;18.784;2022-12-20T04:33:53;1018.87;;;-0.43;73.48
48810;BME280;40070;47.322;18.784;2022-12-20T04:35:55;1018.83;;;-0.27;73.60
48810;BME280;40070;47.322;18.784;2022-12-20T04:37:58;1018.80;;;-0.04;73.04
48810;BME280;40070;47.322;18.784;2022-12-20T04:40:00;1018.86;;;0.14;72.28
48810;BME280;40070;47.322;18.784;2022-12-20T04:42:03;1018.85;;;0.12;72.35
48810;BME280;40070;47.322;18.784;2022-12-20T04:44:05;1018.93;;;0.30;72.07
48810;BME280;40070;47.322;18.784;2022-12-20T04:46:07;1018.95;;;0.40;71.84
48810;BME280;40070;47.322;18.784;2022-12-20T04:48:10;1018.96;;;0.22;72.35
48810;BME280;40070;47.322;18.784;2022-12-20T04:50:12;1019.01;;;0.19;72.85
48810;BME280;40070;47.322;18.784;2022-12-20T04:52:15;1019.13;;;0.32;72.79
48810;BME280;40070;47.322;18.784;2022-12-20T04:54:17;1019.16;;;0.21;72.99
48810;BME280;40070;47.322;18.784;2022-12-20T04:56:21;1019.12;;;0.32;72.63
48810;BME280;40070;47.322;18.784;2022-12-20T04:58:23;1019.08;;;0.21;72.89
48810;BME280;40070;47.322;18.784;2022-12-20T05:00:26;1019.02;;;0.34;72.69
48810;BME280;40070;47.322;18.784;2022-12-20T05:02:28;1019.11;;;0.47;72.75
48810;BME280;40070;47.322;18.784;2022-12-20T05:04:30;1019.14;;;0.48;72.14
48810;BME280;40070;47.322;18.784;2022-12-20T05:06:33;1019.15;;;0.23;72.82
48810;BME280;40070;47.322;18.784;2022-12-20T05:08:35;1019.22;;;0.31;72.86
48810;BME280;40070;47.322;18.784;2022-12-20T05:10:38;1019.24;;;0.29;72.86
48810;BME280;40070;47.322;18.784;2022-12-20T05:12:40;1019.22;;;0.50;72.24
48810;BME280;40070;47.322;18.784;2022-12-20T05:14:43;1019.27;;;0.56;72.31
48810;BME280;40070;47.322;18.784;2022-12-20T05:16:45;1019.23;;;0.64;71.90
48810;BME280;40070;47.322;18.784;2022-12-20T05:18:48;1019.27;;;0.52;72.18
48810;BME280;40070;47.322;18.784;2022-12-20T05:20:50;1019.29;;;0.67;71.50
48810;BME280;40070;47.322;18.784;2022-12-20T05:22:52;1019.36;;;0.51;71.67
48810;BME280;40070;47.322;18.784;2022-12-20T05:24:55;1019.39;;;0.54;71.80
48810;BME280;40070;47.322;18.784;2022-12-20T05:26:57;1019.39;;;0.64;72.06
48810;BME280;40070;47.322;18.784;2022-12-20T05:28:59;1019.29;;;0.97;70.42
48810;BME280;40070;47.322;18.784;2022-12-20T05:31:02;1019.24;;;0.74;70.53
48810;BME280;40070;47.322;18.784;2022-12-20T05:33:04;1019.25;;;0.39;71.55
48810;BME280;40070;47.322;18.784;2022-12-20T05:35:07;1019.22;;;0.68;71.16
48810;BME280;40070;47.322;18.784;2022-12-20T05:37:09;1019.33;;;0.24;71.83
48810;BME280;40070;47.322;18.784;2022-12-20T05:39:11;1019.29;;;0.41;71.36
48810;BME280;40070;47.322;18.784;2022-12-20T05:41:14;1019.18;;;0.10;72.50
48810;BME280;40070;47.322;18.784;2022-12-20T05:43:16;1019.20;;;0.06;72.92
48810;BME280;40070;47.322;18.784;2022-12-20T05:45:19;1019.23;;;0.27;72.40
48810;BME280;40070;47.322;18.784;2022-12-20T05:47:22;1019.21;;;0.50;71.41
48810;BME280;40070;47.322;18.784;2022-12-20T05:49:24;1019.18;;;0.18;72.18
48810;BME280;40070;47.322;18.784;2022-12-20T05:51:26;1019.15;;;0.27;72.57
48810;BME280;40070;47.322;18.784;2022-12-20T05:53:29;1019.16;;;0.30;71.91
48810;BME280;40070;47.322;18.784;2022-12-20T05:55:31;1019.15;;;0.08;72.93
48810;BME280;40070;47.322;18.784;2022-12-20T05:57:33;1019.12;;;0.27;71.93
48810;BME280;40070;47.322;18.784;2022-12-20T05:59:36;1019.14;;;0.07;72.48
48810;BME280;40070;47.322;18.784;2022-12-20T06:01:38;1019.19;;;0.62;71.12
48810;BME280;40070;47.322;18.784;2022-12-20T06:03:40;1019.10;;;0.29;71.30
48810;BME280;40070;47.322;18.784;2022-12-20T06:05:43;1019.05;;;0.18;71.37
48810;BME280;40070;47.322;18.784;2022-12-20T06:07:46;1019.04;;;0.10;72.15
48810;BME280;40070;47.322;18.784;2022-12-20T06:09:48;1019.01;;;0.21;72.32
48810;BME280;40070;47.322;18.784;2022-12-20T06:11:50;1018.94;;;0.26;71.47
48810;BME280;40070;47.322;18.784;2022-12-20T06:13:53;1018.96;;;-0.01;72.62
48810;BME280;40070;47.322;18.784;2022-12-20T06:15:55;1018.90;;;0.20;72.48
48810;BME280;40070;47.322;18.784;2022-12-20T06:17:57;1018.89;;;0.38;71.48
48810;BME280;40070;47.322;18.784;2022-12-20T06:20:00;1018.94;;;0.35;71.04
48810;BME280;40070;47.322;18.784;2022-12-20T06:22:02;1018.93;;;0.35;71.24
48810;BME280;40070;47.322;18.784;2022-12-20T06:24:05;1018.88;;;0.37;71.07
48810;BME280;40070;47.322;18.784;2022-12-20T06:26:07;1018.86;;;0.37;71.17
48810;BME280;40070;47.322;18.784;2022-12-20T06:28:10;1018.86;;;0.42;71.30
48810;BME280;40070;47.322;18.784;2022-12-20T06:30:12;1018.85;;;0.23;71.39
48810;BME280;40070;47.322;18.784;2022-12-20T06:32:15;1018.83;;;0.22;72.00
48810;BME280;40070;47.322;18.784;2022-12-20T06:34:17;1018.92;;;0.40;71.30
48810;BME280;40070;47.322;18.784;2022-12-20T06:36:20;1018.92;;;0.45;71.32
48810;BME280;40070;47.322;18.784;2022-12-20T06:38:22;1018.86;;;0.52;71.06
48810;BME280;40070;47.322;18.784;2022-12-20T06:40:24;1018.90;;;0.39;71.08
48810;BME280;40070;47.322;18.784;2022-12-20T06:42:27;1018.92;;;0.28;71.51
48810;BME280;40070;47.322;18.784;2022-12-20T06:44:29;1018.89;;;-0.06;72.29
48810;BME280;40070;47.322;18.784;2022-12-20T06:46:31;1018.91;;;-0.02;72.31
48810;BME280;40070;47.322;18.784;2022-12-20T06:48:34;1018.86;;;0.09;72.24
48810;BME280;40070;47.322;18.784;2022-12-20T06:50:37;1018.83;;;-0.03;72.68
48810;BME280;40070;47.322;18.784;2022-12-20T06:52:39;1018.85;;;0.54;71.25
48810;BME280;40070;47.322;18.784;2022-12-20T06:54:41;1018.86;;;0.20;72.08
48810;BME280;40070;47.322;18.784;2022-12-20T06:56:44;1018.89;;;0.51;70.96
48810;BME280;40070;47.322;18.784;2022-12-20T06:58:46;1018.92;;;0.12;72.03
48810;BME280;40070;47.322;18.784;2022-12-20T07:00:48;1018.88;;;0.00;72.54
48810;BME280;40070;47.322;18.784;2022-12-20T07:02:51;1018.85;;;0.14;72.25
48810;BME280;40070;47.322;18.784;2022-12-20T07:04:53;1018.75;;;0.41;71.36
48810;BME280;40070;47.322;18.784;2022-12-20T07:06:56;1018.70;;;0.21;71.98
48810;BME280;40070;47.322;18.784;2022-12-20T07:08:58;1018.65;;;0.03;72.32
48810;BME280;40070;47.322;18.784;2022-12-20T07:11:04;1018.69;;;0.36;72.21
48810;BME280;40070;47.322;18.784;2022-12-20T07:13:06;1018.74;;;0.18;72.01
48810;BME280;40070;47.322;18.784;2022-12-20T07:15:09;1018.70;;;0.16;72.02
48810;BME280;40070;47.322;18.784;2022-12-20T07:17:11;1018.69;;;0.30;72.17
48810;BME280;40070;47.322;18.784;2022-12-20T07:19:14;1018.65;;;0.24;72.14
48810;BME280;40070;47.322;18.784;2022-12-20T07:21:16;1018.62;;;0.49;71.16
48810;BME280;40070;47.322;18.784;2022-12-20T07:23:19;1018.65;;;0.59;71.28
48810;BME280;40070;47.322;18.784;2022-12-20T07:25:21;1018.69;;;0.80;70.37
48810;BME280;40070;47.322;18.784;2022-12-20T07:27:24;1018.76;;;0.92;69.55
48810;BME280;40070;47.322;18.784;2022-12-20T07:29:26;1018.75;;;0.98;69.34
48810;BME280;40070;47.322;18.784;2022-12-20T07:31:29;1018.82;;;1.07;69.45
48810;BME280;40070;47.322;18.784;2022-12-20T07:33:31;1018.87;;;1.28;68.70
48810;BME280;40070;47.322;18.784;2022-12-20T07:35:34;1018.87;;;1.48;67.88
48810;BME280;40070;47.322;18.784;2022-12-20T07:37:36;1018.77;;;1.05;69.08
48810;BME280;40070;47.322;18.784;2022-12-20T07:39:39;1018.79;;;1.27;68.64
48810;BME280;40070;47.322;18.784;2022-12-20T07:41:41;1018.81;;;1.23;68.76
48810;BME280;40070;47.322;18.784;2022-12-20T07:43:44;1018.82;;;1.38;68.65
48810;BME280;40070;47.322;18.784;2022-12-20T07:45:46;1018.73;;;1.49;68.68
48810;BME280;40070;47.322;18.784;2022-12-20T07:47:48;1018.64;;;1.49;68.18
48810;BME280;40070;47.322;18.784;2022-12-20T07:49:51;1018.54;;;1.22;68.73
48810;BME280;40070;47.322;18.784;2022-12-20T07:51:54;1018.49;;;0.97;69.52
48810;BME280;40070;47.322;18.784;2022-12-20T07:53:58;1018.42;;;1.02;69.79
48810;BME280;40070;47.322;18.784;2022-12-20T07:56:02;1018.40;;;0.94;69.86
48810;BME280;40070;47.322;18.784;2022-12-20T07:58:06;1018.40;;;1.13;69.94
48810;BME280;40070;47.322;18.784;2022-12-20T08:00:10;1018.35;;;1.06;69.59
48810;BME280;40070;47.322;18.784;2022-12-20T08:02:14;1018.37;;;0.87;69.77
48810;BME280;40070;47.322;18.784;2022-12-20T08:04:18;1018.35;;;1.12;69.40
48810;BME280;40070;47.322;18.784;2022-12-20T08:06:22;1018.36;;;1.09;69.27
48810;BME280;40070;47.322;18.784;2022-12-20T08:08:24;1018.34;;;0.99;69.35
48810;BME280;40070;47.322;18.784;2022-12-20T08:10:27;1018.37;;;0.97;69.38
48810;BME280;40070;47.322;18.784;2022-12-20T08:12:29;1018.35;;;1.18;69.34
48810;BME280;40070;47.322;18.784;2022-12-20T08:14:32;1018.38;;;1.15;69.39
48810;BME280;40070;47.322;18.784;2022-12-20T08:16:34;1018.27;;;1.26;69.23
48810;BME280;40070;47.322;18.784;2022-12-20T08:18:37;1018.27;;;1.11;69.31
48810;BME280;40070;47.322;18.784;2022-12-20T08:20:39;1018.28;;;1.35;68.65
48810;BME280;40070;47.322;18.784;2022-12-20T08:22:41;1018.34;;;1.32;68.30
48810;BME280;40070;47.322;18.784;2022-12-20T08:24:44;1018.39;;;1.40;68.42
48810;BME280;40070;47.322;18.784;2022-12-20T08:27:04;1018.37;;;1.18;68.56
48810;BME280;40070;47.322;18.784;2022-12-20T08:29:07;1018.33;;;1.62;68.37
48810;BME280;40070;47.322;18.784;2022-12-20T08:31:09;1018.32;;;1.72;67.38
48810;BME280;40070;47.322;18.784;2022-12-20T08:33:12;1018.29;;;1.23;68.19
48810;BME280;40070;47.322;18.784;2022-12-20T08:35:14;1018.23;;;1.35;68.37
48810;BME280;40070;47.322;18.784;2022-12-20T08:37:16;1018.25;;;1.36;68.10
48810;BME280;40070;47.322;18.784;2022-12-20T08:39:19;1018.24;;;1.41;68.08
48810;BME280;40070;47.322;18.784;2022-12-20T08:41:21;1018.23;;;1.49;68.04
48810;BME280;40070;47.322;18.784;2022-12-20T08:43:24;1018.19;;;1.54;67.79
48810;BME280;40070;47.322;18.784;2022-12-20T08:45:26;1018.15;;;1.50;67.77
48810;BME280;40070;47.322;18.784;2022-12-20T08:47:29;1018.06;;;1.72;67.22
48810;BME280;40070;47.322;18.784;2022-12-20T08:49:31;1018.06;;;1.76;66.87
48810;BME280;40070;47.322;18.784;2022-12-20T08:51:33;1018.09;;;1.96;66.72
48810;BME280;40070;47.322;18.784;2022-12-20T08:53:36;1018.03;;;2.16;65.84
48810;BME280;40070;47.322;18.784;2022-12-20T08:55:38;1017.98;;;2.22;65.83
48810;BME280;40070;47.322;18.784;2022-12-20T08:57:41;1018.09;;;2.24;65.64
48810;BME280;40070;47.322;18.784;2022-12-20T08:59:43;1018.13;;;2.30;64.82
48810;BME280;40070;47.322;18.784;2022-12-20T09:01:45;1018.06;;;2.05;65.28
48810;BME280;40070;47.322;18.784;2022-12-20T09:03:48;1018.11;;;2.26;65.07
48810;BME280;40070;47.322;18.784;2022-12-20T09:05:50;1018.11;;;2.28;64.58
48810;BME280;40070;47.322;18.784;2022-12-20T09:07:53;1018.13;;;2.17;64.98
48810;BME280;40070;47.322;18.784;2022-12-20T09:09:55;1018.11;;;2.23;65.20
48810;BME280;40070;47.322;18.784;2022-12-20T09:11:57;1018.12;;;2.12;65.19
48810;BME280;40070;47.322;18.784;2022-12-20T09:14:00;1018.19;;;2.44;64.96
48810;BME280;40070;47.322;18.784;2022-12-20T09:16:02;1018.21;;;2.29;64.69
48810;BME280;40070;47.322;18.784;2022-12-20T09:18:05;1018.25;;;2.45;64.74
48810;BME280;40070;47.322;18.784;2022-12-20T09:20:08;1018.20;;;2.61;63.69
48810;BME280;40070;47.322;18.784;2022-12-20T09:22:10;1018.20;;;2.64;63.19
48810;BME280;40070;47.322;18.784;2022-12-20T09:24:12;1018.21;;;2.62;63.00
48810;BME280;40070;47.322;18.784;2022-12-20T09:26:15;1018.10;;;2.61;63.29
48810;BME280;40070;47.322;18.784;2022-12-20T09:28:17;1017.96;;;3.00;62.55
48810;BME280;40070;47.322;18.784;2022-12-20T09:30:20;1017.92;;;2.82;62.19
48810;BME280;40070;47.322;18.784;2022-12-20T09:32:22;1017.87;;;2.86;62.04
48810;BME280;40070;47.322;18.784;2022-12-20T09:34:25;1017.76;;;2.65;62.68
48810;BME280;40070;47.322;18.784;2022-12-20T09:36:27;1017.73;;;2.91;62.53
48810;BME280;40070;47.322;18.784;2022-12-20T09:38:30;1017.66;;;2.90;62.22
48810;BME280;40070;47.322;18.784;2022-12-20T09:40:33;1017.63;;;3.22;61.57
48810;BME280;40070;47.322;18.784;2022-12-20T09:42:36;1017.61;;;3.55;60.93
48810;BME280;40070;47.322;18.784;2022-12-20T09:44:39;1017.58;;;3.35;60.94
48810;BME280;40070;47.322;18.784;2022-12-20T09:46:42;1017.57;;;3.68;60.82
48810;BME280;40070;47.322;18.784;2022-12-20T09:48:45;1017.58;;;3.81;60.13
48810;BME280;40070;47.322;18.784;2022-12-20T09:53:21;1017.46;;;4.23;59.22
48810;BME280;40070;47.322;18.784;2022-12-20T10:00:16;1017.61;;;3.40;60.93
48810;BME280;40070;47.322;18.784;2022-12-20T10:02:19;1017.57;;;3.25;61.32
48810;BME280;40070;47.322;18.784;2022-12-20T10:04:24;1017.55;;;3.52;60.91
48810;BME280;40070;47.322;18.784;2022-12-20T10:06:43;1017.59;;;3.67;60.77
48810;BME280;40070;47.322;18.784;2022-12-20T10:08:53;1017.54;;;4.37;59.35
48810;BME280;40070;47.322;18.784;2022-12-20T10:10:58;1017.37;;;4.46;57.99
48810;BME280;40070;47.322;18.784;2022-12-20T10:15:35;1017.42;;;3.88;59.16
48810;BME280;40070;47.322;18.784;2022-12-20T10:20:16;1017.45;;;4.55;57.12
48810;BME280;40070;47.322;18.784;2022-12-20T10:22:24;1017.41;;;4.57;57.36
48810;BME280;40070;47.322;18.784;2022-12-20T10:24:30;1017.31;;;4.73;56.89
48810;BME280;40070;47.322;18.784;2022-12-20T10:26:33;1017.25;;;4.87;56.91
48810;BME280;40070;47.322;18.784;2022-12-20T10:28:35;1017.27;;;4.53;56.59
48810;BME280;40070;47.322;18.784;2022-12-20T10:30:38;1017.25;;;4.40;57.64
48810;BME280;40070;47.322;18.784;2022-12-20T10:32:42;1017.27;;;4.79;57.02
48810;BME280;40070;47.322;18.784;2022-12-20T10:34:56;1017.15;;;5.13;56.65
48810;BME280;40070;47.322;18.784;2022-12-20T10:37:10;1017.02;;;5.32;55.72
48810;BME280;40070;47.322;18.784;2022-12-20T10:39:13;1016.95;;;5.46;55.47
48810;BME280;40070;47.322;18.784;2022-12-20T10:41:16;1016.92;;;5.44;55.09
48810;BME280;40070;47.322;18.784;2022-12-20T10:43:20;1016.91;;;4.85;55.61
48810;BME280;40070;47.322;18.784;2022-12-20T10:45:26;1016.91;;;4.92;56.57
48810;BME280;40070;47.322;18.784;2022-12-20T10:47:40;1016.86;;;5.18;56.14
48810;BME280;40070;47.322;18.784;2022-12-20T10:49:44;1016.88;;;5.10;56.20
48810;BME280;40070;47.322;18.784;2022-12-20T10:51:53;1016.81;;;5.31;55.56
48810;BME280;40070;47.322;18.784;2022-12-20T10:53:58;1016.75;;;5.60;55.34
48810;BME280;40070;47.322;18.784;2022-12-20T10:56:34;1016.68;;;5.45;55.31
48810;BME280;40070;47.322;18.784;2022-12-20T10:58:31;1016.57;;;6.20;53.74
48810;BME280;40070;47.322;18.784;2022-12-20T11:00:34;1016.57;;;6.08;53.85
48810;BME280;40070;47.322;18.784;2022-12-20T11:02:38;1016.53;;;6.64;52.48
48810;BME280;40070;47.322;18.784;2022-12-20T11:04:40;1016.46;;;6.66;51.67
48810;BME280;40070;47.322;18.784;2022-12-20T11:06:43;1016.51;;;6.44;51.91
48810;BME280;40070;47.322;18.784;2022-12-20T11:08:46;1016.41;;;6.74;51.44
48810;BME280;40070;47.322;18.784;2022-12-20T11:10:48;1016.34;;;6.40;52.11
48810;BME280;40070;47.322;18.784;2022-12-20T11:12:58;1016.29;;;6.70;51.59
48810;BME280;40070;47.322;18.784;2022-12-20T11:15:15;1016.22;;;7.20;50.68
48810;BME280;40070;47.322;18.784;2022-12-20T11:17:46;1016.18;;;7.17;50.00
48810;BME280;40070;47.322;18.784;2022-12-20T11:20:00;1016.12;;;6.80;51.16
48810;BME280;40070;47.322;18.784;2022-12-20T11:22:22;1016.08;;;6.96;50.86
48810;BME280;40070;47.322;18.784;2022-12-20T11:26:54;1016.17;;;6.22;52.81